Time;durP1;ratioP1;P1;durP2;ratioP2;P2;SDS_P1;SDS_P2;PMS_P1;PMS_P2;Temp;Humidity;BMP_temperature;BMP_pressure;BME280_temperature;BME280_humidity;BME280_pressure;Samples;Min_cycle;Max_cycle;Signal;HPM_P1;HPM_P2
2023/10/16 00:01:17;;;;;;;6.72;5.60;;;18.90;69.30;;;;;;5016366;28;20191;-69
2023/10/16 00:03:43;;;;;;;6.53;5.35;;;18.90;69.30;;;;;;5016052;28;20631;-69
2023/10/16 00:06:14;;;;;;;7.25;5.57;;;18.90;69.40;;;;;;5002811;28;20186;-69
2023/10/16 00:08:47;;;;;;;7.05;5.10;;;18.90;69.50;;;;;;5016335;28;20183;-69
2023/10/16 00:11:16;;;;;;;5.45;4.88;;;18.90;69.30;;;;;;4999726;28;20183;-68
2023/10/16 00:13:47;;;;;;;6.05;4.97;;;18.90;68.90;;;;;;5016085;28;20246;-69
2023/10/16 00:16:16;;;;;;;6.55;5.38;;;18.90;68.80;;;;;;5028108;28;20189;-69
2023/10/16 00:18:42;;;;;;;5.95;5.20;;;18.90;68.70;;;;;;5000976;28;20187;-70
2023/10/16 00:21:08;;;;;;;6.05;5.15;;;18.90;68.60;;;;;;5002294;28;20684;-69
2023/10/16 00:23:40;;;;;;;6.15;4.90;;;18.90;68.40;;;;;;5032690;28;20219;-69
2023/10/16 00:26:08;;;;;;;5.70;4.85;;;18.90;68.50;;;;;;5018465;28;20187;-69
2023/10/16 00:28:34;;;;;;;5.10;4.40;;;18.90;68.40;;;;;;5032282;28;20628;-69
2023/10/16 00:31:08;;;;;;;5.95;4.70;;;18.90;68.60;;;;;;4999840;28;20183;-69
2023/10/16 00:33:34;;;;;;;7.03;4.50;;;18.90;69.20;;;;;;5030149;28;20204;-69
2023/10/16 00:36:00;;;;;;;5.95;4.72;;;18.90;69.80;;;;;;5015646;28;20187;-69
2023/10/16 00:38:26;;;;;;;6.47;4.63;;;18.90;69.20;;;;;;5013894;28;20187;-69
2023/10/16 00:43:34;;;;;;;6.32;4.78;;;18.90;69.10;;;;;;5015500;28;20206;-69
2023/10/16 00:46:06;;;;;;;5.80;5.00;;;18.90;69.20;;;;;;5017004;28;20198;-69
2023/10/16 00:48:38;;;;;;;5.20;4.38;;;18.90;69.00;;;;;;5015829;28;20187;-69
2023/10/16 00:51:08;;;;;;;5.07;4.57;;;18.90;68.70;;;;;;5015974;28;20206;-69
2023/10/16 00:53:39;;;;;;;5.07;4.43;;;18.90;68.70;;;;;;5016763;28;20207;-69
2023/10/16 00:56:08;;;;;;;5.85;4.63;;;18.90;68.50;;;;;;5017001;28;20186;-69
2023/10/16 00:58:36;;;;;;;6.47;4.97;;;18.80;68.30;;;;;;5017130;28;20287;-68
2023/10/16 01:01:14;;;;;;;5.40;4.60;;;18.80;68.20;;;;;;5031506;28;20266;-69
2023/10/16 01:03:44;;;;;;;5.97;5.03;;;18.80;68.30;;;;;;5015452;28;20290;-69
2023/10/16 01:06:31;;;;;;;4.97;4.45;;;18.80;68.70;;;;;;4999116;28;20184;-69
2023/10/16 01:08:58;;;;;;;6.25;4.68;;;18.80;68.70;;;;;;5017662;28;20198;-69
2023/10/16 01:11:26;;;;;;;4.85;4.25;;;18.80;68.60;;;;;;5001112;28;20175;-68
2023/10/16 01:13:54;;;;;;;5.85;4.10;;;18.80;68.90;;;;;;5032826;28;20214;-69
2023/10/16 01:16:20;;;;;;;4.38;3.80;;;18.80;68.70;;;;;;5015611;28;20190;-69
2023/10/16 01:18:46;;;;;;;4.70;4.20;;;18.80;68.80;;;;;;5016449;28;20179;-69
2023/10/16 01:21:14;;;;;;;5.38;4.20;;;18.80;68.60;;;;;;5016244;28;20176;-69
2023/10/16 01:23:41;;;;;;;6.18;4.30;;;18.80;68.60;;;;;;4999379;28;20227;-69
2023/10/16 01:26:08;;;;;;;4.28;3.80;;;18.80;68.40;;;;;;5003326;28;20218;-69
2023/10/16 01:28:33;;;;;;;5.50;3.80;;;18.80;68.30;;;;;;5019110;28;20186;-69
2023/10/16 01:31:00;;;;;;;5.03;4.10;;;18.80;68.20;;;;;;5019995;28;20191;-69
2023/10/16 01:33:27;;;;;;;4.13;3.70;;;18.80;68.00;;;;;;5019913;28;20226;-69
2023/10/16 01:35:53;;;;;;;4.22;3.70;;;18.80;68.00;;;;;;5036410;28;20273;-69
2023/10/16 01:38:19;;;;;;;4.53;3.55;;;18.80;68.00;;;;;;5002727;28;20199;-69
2023/10/16 01:43:32;;;;;;;4.70;4.03;;;18.80;67.90;;;;;;5010952;28;20218;-69
2023/10/16 01:46:11;;;;;;;4.18;3.78;;;18.80;68.50;;;;;;5020658;28;20558;-68
2023/10/16 01:48:40;;;;;;;4.28;3.72;;;18.80;68.50;;;;;;5019331;28;20313;-69
2023/10/16 01:51:11;;;;;;;4.03;3.63;;;18.80;68.60;;;;;;5020647;28;20175;-69
2023/10/16 01:53:40;;;;;;;3.80;3.40;;;18.80;68.40;;;;;;5002993;28;20240;-69
2023/10/16 01:56:13;;;;;;;4.07;3.65;;;18.80;68.40;;;;;;5035219;28;20183;-69
2023/10/16 01:58:45;;;;;;;4.40;3.75;;;18.70;68.50;;;;;;5035063;28;20202;-69
2023/10/16 02:01:12;;;;;;;3.95;3.55;;;18.80;68.10;;;;;;5017980;28;20190;-68
2023/10/16 02:03:45;;;;;;;4.88;3.80;;;18.80;68.00;;;;;;5018347;28;20312;-68
2023/10/16 02:06:12;;;;;;;4.25;3.55;;;18.70;67.70;;;;;;5018400;28;20222;-69
2023/10/16 02:08:43;;;;;;;3.78;3.17;;;18.70;67.60;;;;;;5019350;28;20175;-69
2023/10/16 02:11:11;;;;;;;3.92;3.53;;;18.70;67.50;;;;;;5020088;28;20187;-69
2023/10/16 02:13:40;;;;;;;4.20;3.40;;;18.70;67.80;;;;;;5019004;28;20218;-68
2023/10/16 02:16:13;;;;;;;4.00;3.58;;;18.70;68.10;;;;;;5033884;28;20191;-69
2023/10/16 02:18:44;;;;;;;3.60;3.25;;;18.70;68.20;;;;;;5003511;28;20191;-69
2023/10/16 02:21:11;;;;;;;3.60;3.28;;;18.70;68.10;;;;;;5034621;28;20191;-68
2023/10/16 02:23:43;;;;;;;3.40;3.08;;;18.70;68.30;;;;;;5001856;28;20207;-69
2023/10/16 02:26:09;;;;;;;3.85;3.20;;;18.80;68.40;;;;;;5019096;28;20199;-69
2023/10/16 02:28:36;;;;;;;3.92;3.17;;;18.70;74.30;;;;;;5036608;28;20179;-69
2023/10/16 02:31:14;;;;;;;4.00;3.38;;;18.80;71.60;;;;;;5015571;28;20199;-69
2023/10/16 02:33:55;;;;;;;3.80;3.40;;;18.80;71.70;;;;;;5013812;28;20208;-69
2023/10/16 02:36:22;;;;;;;4.03;3.17;;;18.80;73.50;;;;;;5007844;28;20554;-69
2023/10/16 02:38:48;;;;;;;4.03;3.42;;;18.70;74.30;;;;;;5017828;28;20354;-69
2023/10/16 02:41:19;;;;;;;3.38;3.08;;;18.70;73.40;;;;;;5035761;28;20183;-69
2023/10/16 02:43:48;;;;;;;3.35;3.03;;;18.70;69.10;;;;;;5018506;28;20218;-69
2023/10/16 02:46:18;;;;;;;3.83;3.17;;;18.70;67.70;;;;;;5001751;28;20186;-69
2023/10/16 02:48:44;;;;;;;3.80;3.25;;;18.70;67.80;;;;;;5001598;28;20187;-69
2023/10/16 02:51:11;;;;;;;3.40;3.10;;;18.70;68.10;;;;;;5017599;28;20188;-69
2023/10/16 02:53:41;;;;;;;4.13;3.15;;;18.70;68.20;;;;;;5017346;28;20230;-70
2023/10/16 02:56:17;;;;;;;4.15;2.97;;;18.70;68.20;;;;;;5017556;28;20198;-69
2023/10/16 02:58:43;;;;;;;3.33;3.03;;;18.70;68.30;;;;;;5017821;28;20274;-69
2023/10/16 03:01:14;;;;;;;3.85;2.95;;;18.70;68.40;;;;;;5001217;28;20191;-69
2023/10/16 03:03:43;;;;;;;2.67;2.30;;;18.70;68.80;;;;;;5001045;28;20215;-68
2023/10/16 03:06:10;;;;;;;4.13;3.17;;;18.70;69.80;;;;;;5017437;28;20195;-70
2023/10/16 03:08:38;;;;;;;3.88;2.85;;;18.70;71.50;;;;;;5001550;28;20194;-69
2023/10/16 03:11:07;;;;;;;3.40;2.60;;;18.70;71.90;;;;;;5016879;28;20241;-69
2023/10/16 03:13:36;;;;;;;3.20;2.55;;;18.70;72.40;;;;;;5000705;28;20214;-69
2023/10/16 03:18:49;;;;;;;4.10;3.00;;;18.70;72.90;;;;;;5017431;28;20217;-69
2023/10/16 03:23:46;;;;;;;3.17;2.88;;;18.70;72.00;;;;;;5034673;28;20679;-69
2023/10/16 03:26:28;;;;;;;2.65;2.40;;;18.70;72.70;;;;;;5000604;28;20223;-69
2023/10/16 03:29:05;;;;;;;3.20;2.90;;;18.70;73.20;;;;;;5000570;28;20187;-70
2023/10/16 03:31:36;;;;;;;3.45;2.85;;;18.70;73.70;;;;;;5006507;28;20190;-69
2023/10/16 03:34:02;;;;;;;3.78;2.45;;;18.70;71.60;;;;;;5018733;28;20357;-69
2023/10/16 03:36:31;;;;;;;3.03;2.50;;;18.70;68.90;;;;;;5000653;28;20175;-68
2023/10/16 03:38:57;;;;;;;3.75;3.00;;;18.70;69.00;;;;;;5018190;28;20191;-69
2023/10/16 03:41:32;;;;;;;2.85;2.40;;;18.70;68.50;;;;;;5032292;28;20637;-69
2023/10/16 03:44:06;;;;;;;3.25;2.95;;;18.60;69.30;;;;;;5013599;28;20254;-68
2023/10/16 03:46:32;;;;;;;2.97;2.45;;;18.70;68.70;;;;;;5039843;28;20264;-69
2023/10/16 03:48:57;;;;;;;2.80;2.47;;;18.70;69.20;;;;;;5006798;28;20271;-69
2023/10/16 03:51:24;;;;;;;2.88;2.45;;;18.70;70.00;;;;;;5007350;28;20183;-69
2023/10/16 03:53:52;;;;;;;2.97;2.67;;;18.70;70.00;;;;;;5033932;28;20203;-69
2023/10/16 03:56:19;;;;;;;3.22;2.63;;;18.60;70.00;;;;;;5013569;28;20184;-69
2023/10/16 03:58:45;;;;;;;2.67;2.38;;;18.60;70.00;;;;;;5004429;28;20180;-69
2023/10/16 04:01:11;;;;;;;3.15;2.60;;;18.60;70.10;;;;;;5031973;28;20199;-70
2023/10/16 04:03:47;;;;;;;2.53;2.30;;;18.60;70.30;;;;;;5033928;28;20587;-69
2023/10/16 04:06:20;;;;;;;2.40;2.20;;;18.60;70.30;;;;;;5023776;28;20183;-68
2023/10/16 04:08:48;;;;;;;2.97;2.65;;;18.60;71.30;;;;;;5012843;28;20227;-69
2023/10/16 04:11:19;;;;;;;2.95;2.55;;;18.70;71.50;;;;;;5032546;28;20191;-68
2023/10/16 04:13:48;;;;;;;2.88;2.40;;;18.60;72.40;;;;;;5012969;28;20216;-68
2023/10/16 04:16:43;;;;;;;2.47;2.25;;;18.60;73.20;;;;;;5016110;28;20179;-68
2023/10/16 04:21:45;;;;;;;2.85;2.53;;;18.60;71.70;;;;;;5022616;28;20190;-68
2023/10/16 04:30:32;;;;;;;3.00;2.55;;;18.60;74.50;;;;;;5042682;28;20187;-68
2023/10/16 04:35:51;;;;;;;2.55;2.35;;;18.60;71.70;;;;;;5034772;28;20195;-68
2023/10/16 04:38:27;;;;;;;3.05;2.58;;;18.60;69.80;;;;;;5041431;28;20337;-68
2023/10/16 04:44:21;;;;;;;2.53;2.13;;;18.60;70.40;;;;;;5030027;28;20212;-69
2023/10/16 04:49:19;;;;;;;3.38;2.70;;;18.60;71.60;;;;;;5027276;28;20691;-68
2023/10/16 04:52:01;;;;;;;2.50;2.30;;;18.60;73.20;;;;;;5027336;28;20201;-68
2023/10/16 04:54:45;;;;;;;3.35;2.63;;;18.50;76.50;;;;;;5013407;28;20189;-68
2023/10/16 05:02:33;;;;;;;3.10;2.20;;;18.50;67.20;;;;;;5028306;28;20693;-67
2023/10/16 05:07:46;;;;;;;2.80;2.50;;;18.50;67.00;;;;;;5016376;28;20187;-68
2023/10/16 05:10:17;;;;;;;2.90;2.58;;;18.50;66.90;;;;;;5019625;28;20563;-68
2023/10/16 05:15:51;;;;;;;2.53;2.33;;;18.50;66.70;;;;;;5017876;28;20187;-68
2023/10/16 05:18:42;;;;;;;2.72;2.47;;;18.50;66.50;;;;;;5030764;28;20266;-68
2023/10/16 06:16:06;;;;;;;2.60;2.40;;;18.50;66.60;;;;;;5025766;28;20187;-68
2023/10/16 06:18:32;;;;;;;3.33;3.03;;;18.50;66.30;;;;;;5003653;28;20186;-68
2023/10/16 06:21:00;;;;;;;2.95;2.65;;;18.40;66.30;;;;;;5001976;28;20195;-68
2023/10/16 06:23:32;;;;;;;3.50;2.75;;;18.50;66.40;;;;;;5027877;28;20242;-68
2023/10/16 06:26:02;;;;;;;3.42;3.00;;;18.40;66.40;;;;;;5043641;28;20234;-68
2023/10/16 06:28:27;;;;;;;2.72;2.42;;;18.50;66.70;;;;;;5017207;28;20191;-69
2023/10/16 06:30:53;;;;;;;3.15;2.85;;;18.40;66.70;;;;;;5028983;28;20257;-68
2023/10/16 06:33:19;;;;;;;3.13;2.83;;;18.50;66.80;;;;;;5017643;28;20215;-68
2023/10/16 06:35:44;;;;;;;2.97;2.75;;;18.50;66.90;;;;;;5036058;28;20270;-68
2023/10/16 06:38:14;;;;;;;3.08;2.78;;;18.50;66.90;;;;;;5042715;28;20186;-68
2023/10/16 06:40:40;;;;;;;3.05;2.70;;;18.50;66.80;;;;;;5014843;28;20195;-68
2023/10/16 06:43:09;;;;;;;3.10;2.67;;;18.50;66.80;;;;;;5016318;28;20224;-69
2023/10/16 06:45:44;;;;;;;3.03;2.72;;;18.50;66.70;;;;;;5013792;28;20261;-68
2023/10/16 06:48:15;;;;;;;2.90;2.65;;;18.50;66.80;;;;;;5000610;28;20187;-68
2023/10/16 06:51:03;;;;;;;3.75;2.45;;;18.50;66.70;;;;;;5030591;28;20186;-68
2023/10/16 06:53:30;;;;;;;4.10;2.80;;;18.50;66.60;;;;;;5017284;28;20239;-68
2023/10/16 06:55:56;;;;;;;4.78;2.70;;;18.50;66.60;;;;;;4998592;28;20184;-68
2023/10/16 06:58:21;;;;;;;2.58;2.38;;;18.50;66.60;;;;;;5017669;28;20217;-68
2023/10/16 07:00:49;;;;;;;2.38;2.17;;;18.50;66.70;;;;;;4997994;28;20196;-69
2023/10/16 07:03:16;;;;;;;2.90;2.60;;;18.50;66.70;;;;;;5024070;28;20226;-68
2023/10/16 07:05:45;;;;;;;2.50;2.30;;;18.50;66.60;;;;;;5014114;28;20266;-68
2023/10/16 07:08:17;;;;;;;2.80;2.60;;;18.50;66.50;;;;;;5023797;28;20196;-68
2023/10/16 07:10:51;;;;;;;2.63;2.42;;;18.50;66.60;;;;;;5034800;28;20191;-69
2023/10/16 07:13:29;;;;;;;2.70;2.50;;;18.60;66.70;;;;;;5015764;28;20219;-69
2023/10/16 07:16:03;;;;;;;2.60;2.40;;;18.50;66.60;;;;;;5035339;28;20198;-69
2023/10/16 07:18:32;;;;;;;2.63;2.28;;;18.50;66.60;;;;;;5027831;28;20187;-68
2023/10/16 07:23:34;;;;;;;2.58;2.38;;;18.50;66.70;;;;;;5034403;28;20211;-68
2023/10/16 07:26:04;;;;;;;2.30;2.10;;;18.50;66.60;;;;;;5015429;28;20218;-68
2023/10/16 07:28:31;;;;;;;2.58;2.30;;;18.50;66.70;;;;;;5030108;28;20193;-68
2023/10/16 07:30:59;;;;;;;2.92;2.20;;;18.50;66.80;;;;;;5026431;28;20177;-68
2023/10/16 07:33:26;;;;;;;3.10;2.35;;;18.50;66.80;;;;;;5033275;28;20293;-68
2023/10/16 07:35:54;;;;;;;2.30;2.10;;;18.60;66.80;;;;;;5025119;28;20191;-68
2023/10/16 07:38:23;;;;;;;2.67;2.10;;;18.60;66.80;;;;;;5016751;28;20646;-68
2023/10/16 07:40:53;;;;;;;2.35;2.10;;;18.60;66.70;;;;;;5020367;28;20199;-68
2023/10/16 07:43:26;;;;;;;2.22;2.03;;;18.60;66.80;;;;;;5006203;28;20233;-69
2023/10/16 07:46:17;;;;;;;2.35;2.15;;;18.60;66.80;;;;;;5013976;28;20190;-69
2023/10/16 07:48:50;;;;;;;2.80;2.40;;;18.60;66.80;;;;;;5016786;28;20186;-68
2023/10/16 07:51:21;;;;;;;3.25;2.42;;;18.60;66.70;;;;;;5047547;28;20195;-68
2023/10/16 07:53:48;;;;;;;2.97;2.22;;;18.60;66.70;;;;;;5021780;28;20214;-68
2023/10/16 07:56:25;;;;;;;2.92;2.40;;;18.60;66.70;;;;;;5042572;28;20190;-69
2023/10/16 07:59:18;;;;;;;2.65;2.20;;;18.60;66.70;;;;;;5018607;28;20184;-68
2023/10/16 08:01:57;;;;;;;2.28;2.08;;;18.70;66.70;;;;;;4991153;28;20254;-68
2023/10/16 08:06:56;;;;;;;2.30;2.10;;;18.60;66.70;;;;;;5034185;28;20191;-68
2023/10/16 08:11:58;;;;;;;2.70;2.00;;;18.60;66.70;;;;;;5013351;28;20245;-68
2023/10/16 08:14:26;;;;;;;2.65;2.10;;;18.70;66.80;;;;;;5015368;28;20298;-68
2023/10/16 08:16:58;;;;;;;2.53;2.33;;;18.70;66.70;;;;;;5000379;28;20175;-69
2023/10/16 08:19:31;;;;;;;2.67;2.28;;;18.70;66.80;;;;;;5000614;28;20191;-68
2023/10/16 08:22:03;;;;;;;2.75;2.30;;;18.70;66.70;;;;;;5015918;28;20274;-69
2023/10/16 08:24:30;;;;;;;2.05;1.88;;;18.70;66.70;;;;;;5026841;28;20334;-68
2023/10/16 08:27:10;;;;;;;2.53;2.33;;;18.70;66.70;;;;;;5016037;28;20199;-68
2023/10/16 08:29:51;;;;;;;2.25;2.05;;;18.70;66.70;;;;;;5008845;28;20216;-68
2023/10/16 08:35:09;;;;;;;2.10;1.90;;;18.70;66.80;;;;;;5016170;28;20199;-68
2023/10/16 08:37:35;;;;;;;2.28;1.85;;;18.70;66.80;;;;;;5033154;28;20561;-68
2023/10/16 08:40:01;;;;;;;2.20;1.98;;;18.70;66.80;;;;;;4999492;28;20191;-68
2023/10/16 08:42:27;;;;;;;1.88;1.67;;;18.70;66.80;;;;;;5032933;28;20354;-68
2023/10/16 08:45:14;;;;;;;2.35;1.92;;;18.70;66.90;;;;;;5012250;28;20270;-69
2023/10/16 08:47:46;;;;;;;2.45;1.90;;;18.70;66.70;;;;;;5012968;28;20187;-68
2023/10/16 08:50:17;;;;;;;1.77;1.65;;;18.70;66.80;;;;;;5032391;28;20257;-69
2023/10/16 08:52:58;;;;;;;1.90;1.80;;;18.70;66.80;;;;;;5015766;28;20310;-68
2023/10/16 08:55:28;;;;;;;2.10;1.90;;;18.70;66.80;;;;;;5014897;28;20202;-69
2023/10/16 08:57:53;;;;;;;1.73;1.60;;;18.80;66.90;;;;;;4999627;28;20191;-68
2023/10/16 09:00:23;;;;;;;1.83;1.55;;;18.70;67.00;;;;;;5015764;28;20187;-68
2023/10/16 09:02:53;;;;;;;1.73;1.63;;;18.70;66.80;;;;;;5011900;28;20215;-68
2023/10/16 09:05:20;;;;;;;1.63;1.50;;;18.70;66.80;;;;;;5031633;28;20184;-68
2023/10/16 09:07:48;;;;;;;2.17;1.90;;;18.80;66.80;;;;;;5014958;28;20194;-68
2023/10/16 09:10:15;;;;;;;1.92;1.75;;;18.70;66.80;;;;;;5005944;28;20214;-69
2023/10/16 09:12:55;;;;;;;1.60;1.50;;;18.70;66.70;;;;;;5003395;28;20309;-69
2023/10/16 09:15:26;;;;;;;2.03;1.83;;;18.80;66.90;;;;;;5015447;28;20212;-68
2023/10/16 09:17:54;;;;;;;2.05;1.88;;;18.80;66.70;;;;;;5032887;28;20191;-68
2023/10/16 09:20:32;;;;;;;1.58;1.48;;;18.70;66.70;;;;;;5015250;28;20179;-68
2023/10/16 09:23:06;;;;;;;1.67;1.58;;;18.70;66.60;;;;;;5011728;28;20219;-68
2023/10/16 09:25:32;;;;;;;1.90;1.65;;;18.70;66.70;;;;;;5015225;28;20202;-68
2023/10/16 09:27:57;;;;;;;2.15;1.95;;;18.80;66.70;;;;;;5012761;28;20180;-68
2023/10/16 09:30:28;;;;;;;2.50;1.92;;;18.80;66.90;;;;;;5015752;28;20191;-69
2023/10/16 09:32:54;;;;;;;1.70;1.60;;;18.70;66.50;;;;;;5005376;28;20218;-68
2023/10/16 09:35:30;;;;;;;2.10;1.60;;;18.80;66.70;;;;;;5022898;28;20195;-68
2023/10/16 09:38:19;;;;;;;1.92;1.83;;;18.80;66.70;;;;;;5015743;28;20684;-69
2023/10/16 09:41:37;;;;;;;1.73;1.63;;;18.80;66.70;;;;;;5020374;28;20539;-68
2023/10/16 09:43:56;;;;;;;1.52;1.30;;;18.80;66.60;;;;;;5024595;28;20234;-68
2023/10/16 09:49:21;;;;;;;1.63;1.52;;;18.80;66.50;;;;;;5026835;28;20195;-68
2023/10/16 09:51:48;;;;;;;1.50;1.40;;;18.80;66.40;;;;;;5024647;28;20193;-68
2023/10/16 09:54:15;;;;;;;1.38;1.27;;;18.80;66.50;;;;;;5036655;28;20231;-68
2023/10/16 09:56:45;;;;;;;1.88;1.73;;;18.80;66.40;;;;;;5018837;28;20628;-68
2023/10/16 09:59:26;;;;;;;1.55;1.38;;;18.70;66.50;;;;;;5002196;28;20183;-68
2023/10/16 10:01:55;;;;;;;2.03;1.50;;;18.80;66.50;;;;;;5015135;28;20193;-68
2023/10/16 10:04:24;;;;;;;1.60;1.40;;;18.70;66.40;;;;;;5000401;28;20211;-68
2023/10/16 10:06:59;;;;;;;1.98;1.63;;;18.80;66.40;;;;;;5042151;28;20218;-68
2023/10/16 10:09:42;;;;;;;1.85;1.67;;;18.80;66.30;;;;;;5003281;28;20255;-68
2023/10/16 10:12:28;;;;;;;1.45;1.10;;;18.80;66.40;;;;;;5001660;28;20183;-68
2023/10/16 10:15:22;;;;;;;1.40;1.30;;;18.80;66.20;;;;;;5021270;28;20191;-68
2023/10/16 10:17:54;;;;;;;1.73;1.30;;;18.80;66.10;;;;;;5031992;28;20206;-69
2023/10/16 10:20:26;;;;;;;1.35;1.25;;;18.80;66.40;;;;;;5008690;28;20179;-70
2023/10/16 10:23:04;;;;;;;1.40;1.30;;;18.80;66.60;;;;;;5018396;28;20231;-68
2023/10/16 10:25:38;;;;;;;1.80;1.70;;;18.80;66.30;;;;;;5023383;28;20203;-68
2023/10/16 10:28:22;;;;;;;1.75;1.42;;;18.80;66.30;;;;;;5016538;28;20191;-69
2023/10/16 10:30:50;;;;;;;2.30;1.40;;;18.80;66.20;;;;;;5018482;28;20183;-68
2023/10/16 10:33:51;;;;;;;1.33;1.10;;;18.80;66.30;;;;;;5017752;28;20656;-68
2023/10/16 10:36:36;;;;;;;1.88;1.33;;;18.80;66.30;;;;;;5017975;28;20226;-69
2023/10/16 10:39:20;;;;;;;1.50;1.40;;;18.80;66.20;;;;;;5035966;28;20245;-69
2023/10/16 10:41:53;;;;;;;1.83;1.45;;;18.80;66.30;;;;;;5030040;28;20234;-69
2023/10/16 10:44:29;;;;;;;1.40;1.30;;;18.80;66.20;;;;;;5033271;28;20211;-69
2023/10/16 10:46:57;;;;;;;1.40;1.30;;;18.80;66.50;;;;;;5018112;28;20183;-69
2023/10/16 10:49:33;;;;;;;1.50;1.40;;;18.80;66.50;;;;;;5018177;28;20184;-68
2023/10/16 10:52:12;;;;;;;1.85;1.60;;;18.80;66.40;;;;;;5015005;28;20190;-68
2023/10/16 10:54:48;;;;;;;1.75;1.40;;;18.80;66.50;;;;;;5029173;28;20209;-69
2023/10/16 10:57:19;;;;;;;1.83;1.52;;;18.80;66.30;;;;;;5006822;28;20821;-69
2023/10/16 10:59:55;;;;;;;2.22;1.50;;;18.80;66.20;;;;;;5014441;28;20188;-68
2023/10/16 11:04:58;;;;;;;1.60;1.38;;;18.80;66.20;;;;;;5014498;28;20184;-69
2023/10/16 11:08:17;;;;;;;1.77;1.67;;;18.80;66.00;;;;;;5000153;28;20186;-69
2023/10/16 11:10:38;;;;;;;1.40;1.30;;;18.80;66.00;;;;;;5034453;28;20217;-69
2023/10/16 11:13:04;;;;;;;1.70;1.45;;;18.80;65.70;;;;;;5034917;28;20261;-69
2023/10/16 11:15:30;;;;;;;1.63;1.50;;;18.80;65.80;;;;;;5034901;28;20187;-69
2023/10/16 11:18:05;;;;;;;1.55;1.45;;;18.80;66.00;;;;;;5017293;28;20189;-69
2023/10/16 11:20:36;;;;;;;1.55;1.42;;;18.80;66.00;;;;;;5016351;28;20199;-69
2023/10/16 11:23:12;;;;;;;1.65;1.55;;;18.80;66.00;;;;;;5016980;28;20302;-70
2023/10/16 11:25:45;;;;;;;1.58;1.30;;;18.80;65.80;;;;;;5017464;28;20186;-69
2023/10/16 11:28:20;;;;;;;1.83;1.42;;;18.80;66.00;;;;;;5039336;28;20248;-69
2023/10/16 11:30:49;;;;;;;1.45;1.35;;;18.80;66.00;;;;;;5000820;28;20221;-69
2023/10/16 11:33:34;;;;;;;1.77;1.60;;;18.80;65.70;;;;;;5016410;28;20207;-69
2023/10/16 11:36:03;;;;;;;1.58;1.40;;;18.80;65.70;;;;;;4998095;28;20270;-69
2023/10/16 11:38:32;;;;;;;2.40;1.60;;;18.80;65.70;;;;;;5033131;28;20266;-69
2023/10/16 11:41:16;;;;;;;1.60;1.35;;;18.80;65.90;;;;;;5014225;28;20191;-70
2023/10/16 11:43:52;;;;;;;2.80;1.25;;;18.80;65.70;;;;;;5029181;28;20215;-70
2023/10/16 11:46:44;;;;;;;1.48;1.38;;;18.80;65.80;;;;;;5032618;28;20179;-70
2023/10/16 11:51:58;;;;;;;1.58;1.48;;;18.80;65.80;;;;;;5019660;28;20194;-70
2023/10/16 11:54:24;;;;;;;2.38;1.55;;;18.80;65.70;;;;;;5032226;28;20203;-69
2023/10/16 11:56:53;;;;;;;1.70;1.60;;;18.80;65.70;;;;;;4997295;28;20315;-70
2023/10/16 11:59:25;;;;;;;1.55;1.45;;;18.80;65.70;;;;;;5031678;28;20215;-69
2023/10/16 12:01:52;;;;;;;1.83;1.60;;;18.80;65.80;;;;;;4999102;28;20191;-69
2023/10/16 12:04:22;;;;;;;1.60;1.42;;;18.80;65.70;;;;;;5033587;28;20211;-69
2023/10/16 12:06:48;;;;;;;1.45;1.35;;;18.80;65.80;;;;;;5013308;28;20188;-69
2023/10/16 12:09:20;;;;;;;2.13;1.35;;;18.80;65.70;;;;;;5016059;28;20222;-70
2023/10/16 12:11:51;;;;;;;1.77;1.27;;;18.80;65.80;;;;;;5019938;28;20187;-69
2023/10/16 12:14:19;;;;;;;2.42;1.40;;;18.80;65.70;;;;;;5037101;28;20211;-69
2023/10/16 12:16:47;;;;;;;1.65;1.20;;;18.80;66.00;;;;;;5016493;28;20234;-69
2023/10/16 12:19:15;;;;;;;1.63;1.52;;;18.80;65.90;;;;;;5008345;28;20190;-69
2023/10/16 12:21:42;;;;;;;1.40;1.30;;;18.80;65.70;;;;;;5017805;28;20196;-69
2023/10/16 12:24:10;;;;;;;1.63;1.30;;;18.80;65.80;;;;;;4999877;28;20657;-69
2023/10/16 12:26:40;;;;;;;2.58;1.48;;;18.80;65.70;;;;;;5016188;28;20206;-69
2023/10/16 12:29:08;;;;;;;1.30;1.20;;;18.80;65.70;;;;;;5021082;28;20198;-69
2023/10/16 12:31:35;;;;;;;2.03;1.42;;;18.80;65.60;;;;;;5016370;28;20191;-69
2023/10/16 12:34:01;;;;;;;1.88;1.40;;;18.80;65.60;;;;;;5016267;28;20275;-69
2023/10/16 12:36:29;;;;;;;1.48;1.10;;;18.80;65.70;;;;;;5016316;28;20191;-69
2023/10/16 12:38:54;;;;;;;1.50;1.40;;;18.80;65.70;;;;;;5015767;28;20187;-69
2023/10/16 12:41:21;;;;;;;1.40;1.30;;;18.80;65.70;;;;;;5032226;28;20183;-69
2023/10/16 12:43:50;;;;;;;1.35;1.25;;;18.80;65.70;;;;;;5012618;28;20228;-69
2023/10/16 12:46:17;;;;;;;1.30;1.20;;;18.80;65.70;;;;;;5015923;28;20241;-69
2023/10/16 12:48:44;;;;;;;1.50;1.40;;;18.80;65.70;;;;;;5021221;28;20187;-69
2023/10/16 12:51:10;;;;;;;1.13;1.02;;;18.80;65.70;;;;;;5000191;28;20183;-69
2023/10/16 12:53:39;;;;;;;1.30;1.20;;;18.80;65.70;;;;;;5043990;28;20215;-69
2023/10/16 12:56:06;;;;;;;1.52;1.42;;;18.80;65.60;;;;;;5035088;28;20190;-69
2023/10/16 12:58:33;;;;;;;1.38;1.27;;;18.80;65.60;;;;;;5020766;28;20214;-69
2023/10/16 13:01:10;;;;;;;1.33;1.23;;;18.80;65.60;;;;;;5018332;28;20650;-69
2023/10/16 13:03:36;;;;;;;1.45;1.30;;;18.80;65.70;;;;;;4999260;28;20219;-69
2023/10/16 13:06:08;;;;;;;1.67;1.30;;;18.80;65.70;;;;;;4997323;28;20187;-69
2023/10/16 13:08:34;;;;;;;1.90;1.40;;;18.80;65.70;;;;;;4999138;28;20210;-69
2023/10/16 13:11:00;;;;;;;1.55;1.27;;;18.80;65.60;;;;;;5015305;28;20187;-69
2023/10/16 13:13:26;;;;;;;1.30;1.20;;;18.80;65.60;;;;;;5015818;28;20214;-69
2023/10/16 13:15:51;;;;;;;1.23;1.10;;;18.80;65.60;;;;;;5035868;28;20559;-69
2023/10/16 13:18:27;;;;;;;1.13;1.10;;;18.80;65.60;;;;;;5036660;28;20187;-69
2023/10/16 13:21:06;;;;;;;1.60;1.20;;;18.80;65.70;;;;;;5037158;28;20202;-69
2023/10/16 13:23:37;;;;;;;1.40;1.30;;;18.80;65.50;;;;;;5018735;28;20233;-69
2023/10/16 13:26:07;;;;;;;1.00;0.90;;;18.80;65.70;;;;;;5023842;28;20222;-69
2023/10/16 13:28:38;;;;;;;1.30;1.20;;;18.80;65.70;;;;;;5019403;28;20221;-69
2023/10/16 13:31:04;;;;;;;1.30;1.20;;;18.80;65.40;;;;;;5017515;28;20191;-71
2023/10/16 13:33:32;;;;;;;1.30;1.20;;;18.80;65.50;;;;;;5018717;28;20208;-70
2023/10/16 13:36:03;;;;;;;1.50;1.40;;;18.80;65.70;;;;;;5016652;28;20278;-70
2023/10/16 13:38:31;;;;;;;1.73;1.25;;;18.80;65.60;;;;;;5034521;28;20187;-70
2023/10/16 13:40:57;;;;;;;1.15;1.00;;;18.80;65.50;;;;;;5041303;28;20245;-70
2023/10/16 13:43:24;;;;;;;1.52;1.27;;;18.80;65.50;;;;;;5035982;28;20222;-69
2023/10/16 13:45:52;;;;;;;1.20;1.02;;;18.80;65.50;;;;;;5020006;28;20188;-70
2023/10/16 13:48:21;;;;;;;1.17;1.08;;;18.80;65.50;;;;;;5002978;28;20187;-69
2023/10/16 13:50:48;;;;;;;1.20;1.10;;;18.80;65.40;;;;;;5015428;28;20647;-70
2023/10/16 13:53:15;;;;;;;1.48;1.20;;;18.80;65.40;;;;;;5018881;28;20274;-69
2023/10/16 13:55:41;;;;;;;1.20;1.10;;;18.80;65.40;;;;;;5019482;28;20183;-70
2023/10/16 13:58:06;;;;;;;1.52;1.15;;;18.80;65.40;;;;;;5017509;28;20584;-69
2023/10/16 14:00:35;;;;;;;1.95;1.27;;;18.80;65.50;;;;;;5007282;28;20199;-69
2023/10/16 14:03:17;;;;;;;1.30;1.20;;;18.80;65.40;;;;;;5016821;28;20227;-70
2023/10/16 14:05:50;;;;;;;1.77;1.20;;;18.80;65.30;;;;;;5018874;28;20180;-69
2023/10/16 14:08:25;;;;;;;1.38;1.27;;;18.80;65.30;;;;;;5006651;28;20188;-69
2023/10/16 14:10:57;;;;;;;1.08;1.00;;;18.80;65.30;;;;;;5034675;28;20188;-70
2023/10/16 14:13:27;;;;;;;1.10;1.02;;;18.80;65.10;;;;;;4999482;28;20214;-69
2023/10/16 14:18:44;;;;;;;1.40;1.30;;;18.80;65.40;;;;;;5040074;28;20301;-70
2023/10/16 14:21:11;;;;;;;2.03;1.05;;;18.80;65.70;;;;;;5018944;28;20179;-69
2023/10/16 14:23:43;;;;;;;1.42;1.27;;;18.80;65.70;;;;;;5034611;28;20215;-70
2023/10/16 14:26:11;;;;;;;2.50;1.23;;;18.80;65.70;;;;;;5001803;28;20195;-69
2023/10/16 14:28:44;;;;;;;1.73;1.27;;;18.80;65.70;;;;;;5034724;28;20183;-70
2023/10/16 14:31:11;;;;;;;1.50;1.02;;;18.80;65.60;;;;;;5036206;28;20681;-69
2023/10/16 14:33:37;;;;;;;2.20;1.40;;;18.80;65.60;;;;;;5035851;28;20215;-69
2023/10/16 14:36:10;;;;;;;2.03;1.27;;;18.80;65.70;;;;;;5016575;28;20192;-69
2023/10/16 14:38:41;;;;;;;1.10;1.00;;;18.80;65.50;;;;;;5016663;28;20202;-70
2023/10/16 14:41:08;;;;;;;1.48;1.10;;;18.80;65.60;;;;;;5018002;28;20194;-69
2023/10/16 14:43:36;;;;;;;1.73;1.20;;;18.80;65.60;;;;;;5023625;28;20225;-70
2023/10/16 14:46:12;;;;;;;1.50;1.05;;;18.80;65.40;;;;;;5037769;28;20633;-69
2023/10/16 14:48:42;;;;;;;1.50;1.00;;;18.80;65.60;;;;;;5035971;28;20273;-69
2023/10/16 14:51:13;;;;;;;1.52;1.35;;;18.80;65.60;;;;;;5005716;28;20233;-69
2023/10/16 14:53:43;;;;;;;1.25;1.15;;;18.80;65.60;;;;;;5003692;28;20214;-69
2023/10/16 14:56:11;;;;;;;1.10;1.00;;;18.80;65.60;;;;;;5016087;28;20198;-69
2023/10/16 14:58:38;;;;;;;1.08;1.00;;;18.80;65.60;;;;;;5006681;28;20200;-70
2023/10/16 15:01:16;;;;;;;0.93;0.93;;;18.80;65.60;;;;;;5014750;28;20250;-70
2023/10/16 15:03:51;;;;;;;2.03;1.38;;;18.80;65.50;;;;;;5005584;28;20222;-69